createdAt,value
2023-03-13T09:00:43.761Z,-7.65
2023-03-13T09:03:10.681Z,-7.89
2023-03-13T09:05:54.601Z,-7.36
2023-03-13T09:08:22.579Z,-7.20
2023-03-13T09:10:58.542Z,-7.05
2023-03-13T09:13:27.532Z,-6.92
2023-03-13T09:16:02.316Z,-6.76
2023-03-13T09:18:30.348Z,-6.69
2023-03-13T09:20:57.694Z,-6.48
2023-03-13T09:23:25.111Z,-6.34
2023-03-13T09:25:57.225Z,-6.22
2023-03-13T09:28:26.017Z,-6.03
2023-03-13T09:30:54.231Z,-5.87
2023-03-13T09:33:25.492Z,-5.72
2023-03-13T09:35:52.441Z,-5.59
2023-03-13T09:38:21.627Z,-5.38
2023-03-13T09:41:05.319Z,-5.48
2023-03-13T09:43:51.627Z,-4.94
2023-03-13T09:46:54.172Z,-4.66
2023-03-13T09:49:35.286Z,-4.45
2023-03-13T09:52:19.308Z,-4.26
2023-03-13T09:55:25.130Z,-4.07
2023-03-13T09:57:56.088Z,-3.84
2023-03-13T10:00:28.953Z,-3.64
2023-03-13T10:03:03.688Z,-3.63
2023-03-13T10:05:32.172Z,-3.28
2023-03-13T10:08:15.699Z,-3.11
2023-03-13T10:10:58.876Z,-2.90
2023-03-13T10:13:38.162Z,-2.73
2023-03-13T10:16:09.741Z,-2.62
2023-03-13T10:18:37.782Z,-2.45
2023-03-13T10:21:20.407Z,-2.31
2023-03-13T10:24:02.293Z,-2.09
2023-03-13T10:26:34.352Z,-1.93
2023-03-13T10:29:21.725Z,-1.78
2023-03-13T10:32:11.290Z,-1.65
2023-03-13T10:34:55.792Z,-1.49
2023-03-13T10:37:24.991Z,-1.37
2023-03-13T10:39:52.906Z,-1.27
2023-03-13T10:42:35.780Z,-1.19
2023-03-13T10:45:05.485Z,-1.04
2023-03-13T10:47:36.314Z,-1.18
2023-03-13T10:50:04.694Z,-0.86
2023-03-13T10:52:35.856Z,-0.78
2023-03-13T10:55:06.852Z,-0.66
2023-03-13T10:57:37.785Z,-0.58
2023-03-13T11:00:28.232Z,-0.49
2023-03-13T11:02:55.825Z,-0.46
2023-03-13T11:05:26.207Z,-0.33
2023-03-13T11:07:54.020Z,-0.51
2023-03-13T11:10:26.281Z,-0.18
2023-03-13T11:12:55.444Z,-0.12
2023-03-13T11:15:52.075Z,-0.05
2023-03-13T11:18:29.930Z,0.03
2023-03-13T11:21:15.708Z,0.10
2023-03-13T11:23:54.546Z,-0.04
2023-03-13T11:26:32.165Z,0.24
2023-03-13T11:29:11.442Z,0.11
2023-03-13T11:31:51.840Z,0.35
2023-03-13T11:34:28.155Z,0.41
2023-03-13T11:37:05.925Z,0.45
2023-03-13T11:39:47.928Z,0.50
2023-03-13T11:42:55.922Z,0.56
2023-03-13T11:45:49.256Z,0.64
2023-03-13T11:48:22.044Z,0.68
2023-03-13T11:51:03.017Z,0.73
2023-03-13T11:53:42.037Z,0.77
2023-03-13T11:56:21.931Z,0.81
2023-03-13T11:59:08.420Z,0.88
2023-03-13T12:01:46.656Z,0.90
2023-03-13T12:04:28.862Z,0.95
2023-03-13T12:07:06.473Z,0.99
2023-03-13T12:09:42.123Z,1.01
2023-03-13T12:12:38.954Z,0.78
2023-03-13T12:15:19.209Z,1.07
2023-03-13T12:17:58.602Z,1.10
2023-03-13T12:20:34.662Z,1.10
2023-03-13T12:23:19.687Z,0.92
2023-03-13T12:25:56.605Z,1.16
2023-03-13T12:29:02.128Z,1.19
2023-03-13T12:31:34.467Z,1.24
2023-03-13T12:34:17.694Z,1.27
2023-03-13T12:36:51.318Z,1.29
2023-03-13T12:39:22.813Z,1.34
2023-03-13T12:42:07.714Z,1.37
2023-03-13T12:44:35.077Z,1.40
2023-03-13T12:47:33.914Z,1.43
2023-03-13T12:50:22.491Z,1.46
2023-03-13T12:53:28.633Z,1.46
2023-03-13T12:56:08.029Z,1.48
2023-03-13T12:58:51.035Z,1.46
2023-03-13T13:01:42.223Z,1.56
2023-03-13T13:04:15.637Z,1.25
2023-03-13T13:07:18.342Z,1.59
2023-03-13T13:10:02.485Z,1.60
2023-03-13T13:12:30.949Z,1.59
2023-03-13T13:15:04.164Z,1.62
2023-03-13T13:17:40.735Z,1.63
2023-03-13T13:20:30.624Z,1.65
2023-03-13T13:23:16.242Z,1.67
2023-03-13T13:25:43.225Z,1.66
2023-03-13T13:28:21.937Z,1.64
2023-03-13T13:30:50.458Z,1.50
2023-03-13T13:33:20.440Z,1.63
2023-03-13T13:36:08.231Z,1.62
2023-03-13T13:38:44.396Z,1.54
2023-03-13T13:41:11.400Z,1.61
2023-03-13T13:43:40.578Z,1.60
2023-03-13T13:46:31.476Z,1.58
2023-03-13T13:49:10.208Z,1.57
2023-03-13T13:51:41.150Z,1.57
2023-03-13T13:54:32.402Z,1.55
2023-03-13T13:57:02.635Z,1.53
2023-03-13T13:59:44.308Z,1.53
2023-03-13T14:02:20.122Z,1.53
2023-03-13T14:05:02.958Z,1.50
2023-03-13T14:07:48.449Z,1.49
2023-03-13T14:10:15.329Z,1.49
2023-03-13T14:12:47.773Z,1.25
2023-03-13T14:15:19.369Z,1.46
2023-03-13T14:17:50.138Z,1.39
2023-03-13T14:20:31.432Z,1.43
2023-03-13T14:23:01.876Z,1.43
2023-03-13T14:25:47.893Z,1.41
2023-03-13T14:28:23.816Z,1.39
2023-03-13T14:30:54.066Z,1.39
2023-03-13T14:33:21.359Z,1.38
2023-03-13T14:35:48.909Z,1.36
2023-03-13T14:38:26.049Z,1.35
2023-03-13T14:40:55.567Z,1.34
2023-03-13T14:43:33.873Z,1.32
2023-03-13T14:46:12.758Z,1.30
2023-03-13T14:48:39.868Z,1.30
2023-03-13T14:51:16.091Z,1.29
2023-03-13T14:54:03.012Z,1.27
2023-03-13T14:56:48.223Z,1.23
2023-03-13T14:59:18.336Z,1.25
2023-03-13T15:01:46.676Z,1.25
2023-03-13T15:04:13.740Z,1.23
2023-03-13T15:06:41.055Z,1.23
2023-03-13T15:09:16.436Z,1.22
2023-03-13T15:11:54.864Z,1.21
2023-03-13T15:14:38.181Z,1.21
2023-03-13T15:17:22.277Z,1.20
2023-03-13T15:19:54.490Z,1.18
2023-03-13T15:22:28.844Z,1.16
2023-03-13T15:25:05.986Z,1.14
2023-03-13T15:27:34.258Z,1.13
2023-03-13T15:30:01.140Z,1.09
2023-03-13T15:32:29.925Z,1.09
2023-03-13T15:34:58.558Z,0.78
2023-03-13T15:37:26.717Z,1.07
2023-03-13T15:39:54.058Z,1.05
2023-03-13T15:42:21.637Z,1.04
2023-03-13T15:44:48.506Z,1.02
2023-03-13T15:47:19.862Z,1.00
2023-03-13T15:49:47.095Z,0.96
2023-03-13T15:52:19.642Z,0.69
2023-03-13T15:54:46.988Z,0.64
2023-03-13T15:57:24.088Z,0.84
2023-03-13T15:59:52.170Z,0.51
2023-03-13T16:02:24.074Z,0.76
2023-03-13T16:04:51.913Z,0.73
2023-03-13T16:07:21.051Z,0.70
2023-03-13T16:09:48.514Z,0.67
2023-03-13T16:12:15.553Z,0.59
2023-03-13T16:14:42.593Z,0.62
2023-03-13T16:17:20.843Z,0.43
2023-03-13T16:19:48.250Z,0.57
2023-03-13T16:22:15.340Z,0.54
2023-03-13T16:24:42.445Z,0.54
2023-03-13T16:27:17.566Z,0.52
2023-03-13T16:29:45.518Z,0.50
2023-03-13T16:32:17.265Z,0.48
2023-03-13T16:34:44.390Z,0.46
2023-03-13T16:37:13.452Z,0.45
2023-03-13T16:39:40.580Z,0.42
2023-03-13T16:42:08.375Z,0.41
2023-03-13T16:44:35.377Z,0.40
2023-03-13T16:47:06.713Z,0.22
2023-03-13T16:49:33.866Z,0.38
2023-03-13T16:52:00.915Z,0.35
2023-03-13T16:54:27.796Z,0.36
2023-03-13T16:56:54.919Z,0.36
2023-03-13T16:59:23.435Z,0.36
2023-03-13T17:01:50.381Z,0.34
2023-03-13T17:04:17.480Z,0.32
2023-03-13T17:06:48.034Z,0.32
2023-03-13T17:09:17.859Z,0.27
2023-03-13T17:11:45.513Z,0.32
2023-03-13T17:14:13.676Z,0.26
2023-03-13T17:16:45.526Z,0.32
2023-03-13T17:19:17.101Z,0.16
2023-03-13T17:21:44.262Z,0.29
2023-03-13T17:24:11.386Z,0.12
2023-03-13T17:26:39.878Z,0.31
2023-03-13T17:29:12.789Z,0.29
2023-03-13T17:31:41.050Z,0.34
2023-03-13T17:34:08.762Z,0.16
2023-03-13T17:36:36.446Z,0.34
2023-03-13T17:39:06.031Z,0.34
2023-03-13T17:41:35.218Z,0.28
2023-03-13T17:44:03.908Z,0.34
2023-03-13T17:46:37.091Z,0.34
2023-03-13T17:49:04.206Z,0.33
2023-03-13T17:51:33.042Z,0.31
2023-03-13T17:54:01.002Z,0.28
2023-03-13T17:56:36.352Z,0.29
2023-03-13T17:59:04.502Z,0.28
2023-03-13T18:01:34.319Z,0.26
2023-03-13T18:04:01.704Z,0.15
2023-03-13T18:06:31.309Z,0.25
2023-03-13T18:09:07.916Z,-0.22
2023-03-13T18:11:37.431Z,0.22
2023-03-13T18:14:06.128Z,0.21
2023-03-13T18:16:43.335Z,0.19
2023-03-13T18:19:22.727Z,0.18
2023-03-13T18:21:52.066Z,-0.07
2023-03-13T18:24:19.530Z,0.18
2023-03-13T18:26:47.958Z,0.17
2023-03-13T18:29:19.429Z,0.15
2023-03-13T18:31:48.103Z,0.15
2023-03-13T18:34:15.278Z,0.10
2023-03-13T18:36:42.368Z,0.12
2023-03-13T18:39:14.729Z,0.11
2023-03-13T18:41:41.611Z,0.01
2023-03-13T18:44:08.526Z,0.08
2023-03-13T18:46:35.561Z,-0.02
2023-03-13T18:49:02.734Z,0.06
2023-03-13T18:51:31.036Z,0.06
2023-03-13T18:53:58.229Z,0.05
2023-03-13T18:56:28.678Z,0.02
2023-03-13T18:58:56.283Z,0.01
2023-03-13T19:01:26.526Z,0.00
2023-03-13T19:03:53.981Z,-0.01
2023-03-13T19:06:28.172Z,0.00
2023-03-13T19:08:58.236Z,-0.01
2023-03-13T19:11:27.746Z,-0.03
2023-03-13T19:13:55.496Z,-0.05
2023-03-13T19:16:25.934Z,-0.22
2023-03-13T19:18:53.212Z,-0.03
2023-03-13T19:21:25.853Z,-0.06
2023-03-13T19:23:53.902Z,-0.08
2023-03-13T19:26:44.507Z,-0.07
2023-03-13T19:29:17.806Z,-0.08
2023-03-13T19:31:45.383Z,-0.12
2023-03-13T19:34:12.473Z,-0.35
2023-03-13T19:36:44.912Z,-0.13
2023-03-13T19:39:20.309Z,-0.14
2023-03-13T19:41:48.440Z,-0.14
2023-03-13T19:44:17.181Z,-0.14
2023-03-13T19:46:45.013Z,-0.15
2023-03-13T19:49:20.625Z,-0.16
2023-03-13T19:51:48.387Z,-0.15
2023-03-13T19:54:15.971Z,-0.16
2023-03-13T19:56:45.959Z,-0.46
2023-03-13T19:59:23.410Z,-0.17
2023-03-13T20:01:50.651Z,-0.19
2023-03-13T20:04:17.875Z,-0.15
2023-03-13T20:06:45.730Z,-0.16
2023-03-13T20:09:15.484Z,-0.16
2023-03-13T20:11:43.011Z,-0.16
2023-03-13T20:14:10.545Z,-0.17
2023-03-13T20:16:38.099Z,-0.18
2023-03-13T20:19:06.186Z,-0.18
2023-03-13T20:21:36.283Z,-0.19
2023-03-13T20:24:03.383Z,-0.18
2023-03-13T20:26:30.500Z,-0.19
2023-03-13T20:28:57.791Z,-0.19
2023-03-13T20:31:28.486Z,-0.19
2023-03-13T20:33:56.800Z,-0.19
2023-03-13T20:36:24.446Z,-0.20
2023-03-13T20:38:51.881Z,-0.54
2023-03-13T20:41:24.643Z,-0.26
2023-03-13T20:43:53.453Z,-0.21
2023-03-13T20:46:21.059Z,-0.23
2023-03-13T20:48:48.742Z,-0.28
2023-03-13T20:51:16.253Z,-0.22
2023-03-13T20:53:43.775Z,-0.36
2023-03-13T20:56:11.792Z,-0.22
2023-03-13T20:58:39.362Z,-0.23
2023-03-13T21:01:07.473Z,-0.23
2023-03-13T21:03:36.043Z,-0.23
2023-03-13T21:06:10.833Z,-0.25
2023-03-13T21:08:38.915Z,-0.24
2023-03-13T21:11:40.770Z,-0.28
2023-03-13T21:14:27.706Z,-0.25
2023-03-13T21:17:14.691Z,-0.26
2023-03-13T21:20:01.630Z,-0.27
2023-03-13T21:22:48.575Z,-0.27
2023-03-13T21:25:35.816Z,-0.30
2023-03-13T21:28:22.860Z,-0.27
2023-03-13T21:31:09.959Z,-0.28
2023-03-13T21:33:57.664Z,-0.29
2023-03-13T21:36:44.626Z,-0.38
2023-03-13T21:39:31.560Z,-0.35
2023-03-13T21:42:18.438Z,-0.31
2023-03-13T21:45:05.898Z,-0.34
2023-03-13T21:47:52.905Z,-0.38
2023-03-13T21:50:40.143Z,-0.34
2023-03-13T21:53:27.054Z,-0.33
2023-03-13T21:56:14.505Z,-0.34
2023-03-13T21:59:01.875Z,-0.34
2023-03-13T22:01:48.796Z,-0.34
2023-03-13T22:04:35.610Z,-0.34
2023-03-13T22:07:22.724Z,-0.36
2023-03-13T22:10:09.582Z,-0.35
2023-03-13T22:12:56.639Z,-0.34
2023-03-13T22:15:43.475Z,-0.35
2023-03-13T22:18:30.547Z,-0.46
2023-03-13T22:21:18.620Z,-0.36
2023-03-13T22:24:07.011Z,-0.38
2023-03-13T22:26:54.697Z,-0.56
2023-03-13T22:29:41.622Z,-0.39
2023-03-13T22:32:28.581Z,-0.51
2023-03-13T22:35:15.654Z,-0.38
2023-03-13T22:38:02.674Z,-0.62
2023-03-13T22:40:49.701Z,-0.39
2023-03-13T22:43:36.635Z,-0.39
2023-03-13T22:46:23.733Z,-0.52
2023-03-13T22:49:10.535Z,-0.40
2023-03-13T22:51:57.485Z,-0.40
2023-03-13T22:54:44.668Z,-0.42
2023-03-13T22:57:31.858Z,-0.41
2023-03-13T23:00:19.600Z,-0.44
2023-03-13T23:03:07.368Z,-0.40
2023-03-13T23:05:59.904Z,-0.40
2023-03-13T23:08:47.188Z,-0.43
2023-03-13T23:11:34.536Z,-0.55
2023-03-13T23:14:21.989Z,-0.44
2023-03-13T23:17:09.125Z,-0.43
2023-03-13T23:19:56.218Z,-0.44
2023-03-13T23:22:47.459Z,-0.78
2023-03-13T23:25:34.812Z,-0.44
2023-03-13T23:28:22.269Z,-0.43
2023-03-13T23:31:09.275Z,-0.42
2023-03-13T23:33:56.369Z,-0.43
2023-03-13T23:36:43.323Z,-0.43
2023-03-13T23:39:30.220Z,-0.43
2023-03-13T23:42:17.469Z,-0.43
2023-03-13T23:45:04.479Z,-0.43
2023-03-13T23:47:51.667Z,-0.46
2023-03-13T23:50:38.883Z,-0.67
2023-03-13T23:53:25.936Z,-0.48
2023-03-13T23:56:18.671Z,-0.45
2023-03-13T23:59:05.753Z,-0.45
